Julian, WV (25529)

11:13 PM EST on February 06, 2016 (GMT -0500)
SOD | | Change Station
CLOSE
Current Station
Personal Weather Station
Location: Sod, WV
Elevation: 771 ft
Nearby Weather Stations

Elev 771 ft 38.27 °N, 81.89 °W | Updated 10 seconds ago

Partly Cloudy
Partly Cloudy
28.2 °F
Feels Like 28 °F
N
0.0
Wind Variable Wind from WNW
Gusts 0.0 mph

Today
High -- | Low -- °F
--% Chance of Precip.
Yesterday
High -- | Low -- °F
Precip. -- in
Pressure 30.25 in
Visibility 10.0 miles
Clouds Few 7000 ft
Windchill 28 °F
Dew Point 24 °F
Humidity 83%
Rainfall 0.00 in
Snow Depth Not available.
7:27 AM 5:55 PM
Waning Crescent, 3% visible
METAR KCRW 070354Z 00000KT 10SM FEW070 02/M06 A3023 RMK AO2 SLP244 T00221061
Pressure 30.25 in
Visibility 10.0 miles
Clouds Few 7000 ft
Windchill 28 °F
Dew Point 24 °F
Humidity 83%
Rainfall 0.00 in
Snow Depth Not available.
7:27 AM 5:55 PM
Waning Crescent, 3% visible
METAR KCRW 070354Z 00000KT 10SM FEW070 02/M06 A3023 RMK AO2 SLP244 T00221061

10-Day Weather Forecast

Almanac

Astronomy

Feb. 06, 2016 Rise Set
Actual Time
Civil Twilight
Nautical Twilight
Astronomical Twilight
Moon
Length of Visible Light
Length of Day
Tomorrow will be .
, % of the Moon is Illuminated

Today's Extremes

State Highs State Lows

Community

WunderPhotos

Upload Photos

1,891,155 photos uploaded!

WunderBlog® & News

Nearby

Air Quality

  Air Quality AQ Index Pollutant
Not available.

Snow Depth

Station Depth Elevation

Earthquake Activity

City Distance Mag. Time & Date
Minimum magnitude displayed is 2.5.

Coastal Water Temperatures

Place Temperature

Stations

Nearby Weather Stations

Station Location Temp. Windchill Dew Point Humidity Wind Precip. Elev Updated Type
                   

Watches & Warnings

There are currently no watches in effect.